Time;durP1;ratioP1;P1;durP2;ratioP2;P2;SDS_P1;SDS_P2;PMS_P1;PMS_P2;Temp;Humidity;BMP_temperature;BMP_pressure;BME280_temperature;BME280_humidity;BME280_pressure;Samples;Min_cycle;Max_cycle;Signal;HPM_P1;HPM_P2
2022/11/04 00:01:40;;;;;;;;;1.00;0.33;;;;;13.34;64.44;100457.34;5033052;28;45307;-74
2022/11/04 00:04:07;;;;;;;;;1.00;0.00;;;;;13.37;64.47;100467.00;5035759;28;45533;-73
2022/11/04 00:06:33;;;;;;;;;1.00;0.00;;;;;13.17;64.90;100443.94;5050860;28;45853;-73
2022/11/04 00:08:59;;;;;;;;;0.33;0.00;;;;;13.02;64.89;100447.13;5035485;28;45500;-70
2022/11/04 00:14:12;;;;;;;;;1.00;0.33;;;;;12.91;65.59;100461.78;5035021;28;45546;-70
2022/11/04 00:19:22;;;;;;;;;1.00;0.33;;;;;12.73;65.19;100431.75;5033629;28;45485;-70
2022/11/04 00:30:07;;;;;;;;;1.67;0.00;;;;;12.64;65.02;100433.31;5033324;28;45463;-73
2022/11/04 00:35:18;;;;;;;;;0.33;0.00;;;;;12.52;65.17;100426.97;5033243;28;45422;-72
2022/11/04 00:37:44;;;;;;;;;1.00;0.00;;;;;12.45;64.34;100400.59;5033985;28;45507;-71
2022/11/04 00:40:13;;;;;;;;;1.00;0.00;;;;;12.41;64.21;100399.66;5034941;28;45349;-70
2022/11/04 00:42:39;;;;;;;;;1.00;0.00;;;;;12.34;64.33;100395.16;5033181;28;45464;-70
2022/11/04 00:45:06;;;;;;;;;1.33;0.00;;;;;12.36;64.53;100408.31;5034141;28;45694;-70
2022/11/04 00:47:32;;;;;;;;;0.00;0.00;;;;;12.41;64.17;100417.13;5034933;28;45508;-70
2022/11/04 00:49:57;;;;;;;;;1.00;0.00;;;;;12.44;64.06;100418.06;5058916;28;45288;-70
2022/11/04 00:52:23;;;;;;;;;1.00;0.00;;;;;12.46;63.75;100412.88;5035128;28;45545;-70
2022/11/04 00:54:49;;;;;;;;;1.00;0.00;;;;;12.53;63.42;100412.13;5038999;28;45679;-71
2022/11/04 00:57:15;;;;;;;;;0.00;0.00;;;;;12.57;63.17;100427.06;5038643;28;45788;-70
2022/11/04 00:59:41;;;;;;;;;0.00;0.00;;;;;12.66;62.98;100439.47;5037198;28;45482;-70
2022/11/04 01:02:08;;;;;;;;;0.00;0.00;;;;;12.62;62.24;100414.06;5053923;28;45591;-70
2022/11/04 01:04:33;;;;;;;;;0.00;0.00;;;;;12.66;61.70;100415.88;5037118;28;45446;-70
2022/11/04 01:07:00;;;;;;;;;1.00;0.00;;;;;12.65;61.33;100401.00;5036708;28;45503;-70
2022/11/04 01:09:26;;;;;;;;;0.00;0.00;;;;;12.51;61.27;100380.69;5038346;28;45298;-73
2022/11/04 01:11:54;;;;;;;;;1.00;1.00;;;;;12.57;61.03;100402.59;5038249;28;45355;-72
2022/11/04 01:14:20;;;;;;;;;0.00;0.00;;;;;12.68;60.89;100420.28;5038232;28;45430;-73
2022/11/04 01:16:49;;;;;;;;;0.00;0.00;;;;;12.68;60.71;100422.03;5038274;28;46074;-75
2022/11/04 01:19:15;;;;;;;;;1.00;0.00;;;;;12.64;60.85;100412.34;5038217;28;45351;-73
2022/11/04 01:21:41;;;;;;;;;0.00;0.00;;;;;12.61;60.77;100407.03;5036688;28;45278;-71
2022/11/04 01:24:07;;;;;;;;;2.00;0.00;;;;;12.35;60.51;100370.72;5038169;28;45267;-71
2022/11/04 01:26:33;;;;;;;;;0.00;0.00;;;;;12.48;60.82;100403.31;5037773;28;45512;-73
2022/11/04 01:28:59;;;;;;;;;1.00;0.00;;;;;12.30;60.75;100378.50;5038297;28;45982;-72
2022/11/04 01:31:27;;;;;;;;;1.67;0.00;;;;;12.42;60.29;100397.94;5037965;28;45382;-73
2022/11/04 01:33:54;;;;;;;;;0.00;0.00;;;;;12.35;60.99;100383.81;5036475;28;45692;-71
2022/11/04 01:36:21;;;;;;;;;0.00;0.00;;;;;12.50;60.13;100407.72;5036379;28;46901;-72
2022/11/04 01:38:47;;;;;;;;;0.00;0.00;;;;;12.41;60.16;100380.44;5037925;28;45509;-71
2022/11/04 01:41:20;;;;;;;;;0.00;0.00;;;;;12.39;60.12;100375.16;5037597;28;45176;-74
2022/11/04 01:43:51;;;;;;;;;1.00;0.33;;;;;12.38;60.11;100385.63;5038229;28;45315;-71
2022/11/04 01:46:37;;;;;;;;;1.00;0.00;;;;;12.27;60.48;100393.25;5059196;28;45701;-70
2022/11/04 01:49:25;;;;;;;;;0.00;0.00;;;;;12.26;60.38;100402.00;5035606;28;45629;-71
2022/11/04 01:51:57;;;;;;;;;0.00;0.00;;;;;12.26;60.81;100392.38;5036749;28;45291;-73
2022/11/04 01:54:24;;;;;;;;;0.67;0.00;;;;;12.26;60.19;100389.78;5036072;28;45374;-71
2022/11/04 01:56:50;;;;;;;;;0.00;0.00;;;;;12.43;60.06;100408.44;5037400;28;45396;-73
2022/11/04 01:59:29;;;;;;;;;0.00;0.00;;;;;12.54;59.58;100414.78;5037765;28;45282;-72
2022/11/04 02:01:57;;;;;;;;;0.33;0.00;;;;;12.35;59.31;100355.00;5037490;28;45614;-74
2022/11/04 02:04:25;;;;;;;;;0.00;0.00;;;;;12.61;58.72;100388.69;5051461;28;45316;-71
2022/11/04 02:06:59;;;;;;;;;1.00;0.00;;;;;12.79;58.30;100403.88;5037101;28;45988;-73
2022/11/04 02:09:28;;;;;;;;;2.00;0.00;;;;;12.83;57.75;100397.84;5037169;28;45611;-75
2022/11/04 02:14:39;;;;;;;;;1.00;0.00;;;;;12.80;58.29;100390.81;5035068;28;45438;-75
2022/11/04 02:17:13;;;;;;;;;0.00;0.00;;;;;12.86;57.46;100398.78;5037152;28;46133;-75
2022/11/04 02:20:05;;;;;;;;;1.33;0.00;;;;;13.01;57.10;100410.41;5034957;28;45818;-75
2022/11/04 02:23:01;;;;;;;;;0.00;0.00;;;;;13.07;57.10;100410.50;5036460;28;45442;-73
2022/11/04 02:25:48;;;;;;;;;0.00;0.00;;;;;13.15;56.44;100422.03;5036108;28;45489;-73
2022/11/04 02:28:45;;;;;;;;;0.00;0.00;;;;;13.17;56.86;100422.94;5036382;28;46378;-74
2022/11/04 02:31:37;;;;;;;;;0.00;0.00;;;;;13.22;56.30;100429.13;5036053;28;45391;-73
2022/11/04 02:34:14;;;;;;;;;0.00;0.00;;;;;13.24;55.99;100423.94;5035015;28;45403;-74
2022/11/04 02:36:51;;;;;;;;;0.00;0.00;;;;;13.26;55.56;100412.59;5034827;28;45403;-73
2022/11/04 02:39:37;;;;;;;;;1.00;0.00;;;;;13.25;55.02;100395.09;5034513;28;45568;-71
2022/11/04 02:42:20;;;;;;;;;0.00;0.00;;;;;13.32;54.00;100396.97;5036882;28;45512;-76
2022/11/04 02:45:18;;;;;;;;;0.00;0.00;;;;;13.32;55.03;100402.22;5038546;28;45504;-74
2022/11/04 02:47:52;;;;;;;;;0.00;0.00;;;;;13.29;55.21;100386.47;5038664;28;45412;-72
2022/11/04 02:51:12;;;;;;;;;0.00;0.00;;;;;13.38;54.72;100392.69;5037958;28;45310;-75
2022/11/04 02:53:44;;;;;;;;;0.00;0.00;;;;;13.39;54.55;100374.38;4976485;28;45464;-74
2022/11/04 02:56:13;;;;;;;;;0.00;0.00;;;;;13.44;54.42;100385.81;4960244;28;45535;-71
2022/11/04 02:59:02;;;;;;;;;0.33;0.00;;;;;13.41;54.16;100382.25;5015792;28;45254;-71
2022/11/04 03:01:33;;;;;;;;;0.00;0.00;;;;;13.31;53.25;100379.50;5037745;28;45282;-71
2022/11/04 03:04:14;;;;;;;;;1.00;0.00;;;;;13.16;54.00;100363.47;5037845;28;45382;-71
2022/11/04 03:06:42;;;;;;;;;2.00;0.67;;;;;12.99;54.46;100352.72;5038106;28;45541;-71
2022/11/04 03:09:12;;;;;;;;;1.00;0.00;;;;;13.00;54.09;100359.69;5038302;28;45450;-70
2022/11/04 03:11:41;;;;;;;;;0.00;0.00;;;;;12.96;54.29;100352.63;5036137;28;45703;-74
2022/11/04 03:14:17;;;;;;;;;0.00;0.00;;;;;13.00;54.55;100359.69;5037774;28;45237;-74
2022/11/04 03:16:50;;;;;;;;;0.00;0.00;;;;;12.84;54.56;100340.19;5037934;28;45445;-72
2022/11/04 03:19:53;;;;;;;;;0.00;0.00;;;;;12.84;55.03;100350.69;5038396;28;45489;-74
2022/11/04 03:22:22;;;;;;;;;0.00;0.00;;;;;12.81;55.19;100357.59;5005396;28;45598;-74
2022/11/04 03:24:49;;;;;;;;;0.00;0.00;;;;;12.72;55.55;100342.59;5037602;28;45489;-71
2022/11/04 03:27:52;;;;;;;;;0.00;0.00;;;;;12.88;55.10;100363.00;5037548;28;46071;-71
2022/11/04 03:30:21;;;;;;;;;0.67;0.00;;;;;12.91;54.94;100352.56;5038346;28;45919;-75
2022/11/04 03:33:17;;;;;;;;;0.00;0.00;;;;;12.97;54.06;100348.28;5037322;28;46254;-71
2022/11/04 03:35:42;;;;;;;;;0.00;0.00;;;;;13.09;54.35;100358.97;5037567;28;45361;-71
2022/11/04 03:38:08;;;;;;;;;0.00;0.00;;;;;13.21;54.59;100376.66;5036328;28;45406;-71
2022/11/04 03:40:34;;;;;;;;;2.00;0.00;;;;;13.25;54.72;100376.75;5037450;28;45411;-75
2022/11/04 03:43:13;;;;;;;;;0.00;0.00;;;;;13.29;55.46;100380.25;5037385;28;45551;-73
2022/11/04 03:45:40;;;;;;;;;0.00;0.00;;;;;13.28;54.60;100374.16;5037635;28;45501;-74
2022/11/04 03:48:07;;;;;;;;;0.00;0.00;;;;;13.32;54.20;100396.97;5035893;28;45371;-73
2022/11/04 03:50:40;;;;;;;;;0.00;0.00;;;;;13.32;55.40;100396.09;5037569;28;45386;-75
2022/11/04 03:53:07;;;;;;;;;0.00;0.00;;;;;13.37;55.44;100409.28;5037117;28;45995;-73
2022/11/04 03:55:42;;;;;;;;;2.00;0.00;;;;;13.43;55.53;100412.00;5035889;28;45582;-74
2022/11/04 03:58:19;;;;;;;;;0.00;0.00;;;;;13.43;55.47;100398.88;5037387;28;45368;-75
2022/11/04 04:00:53;;;;;;;;;1.00;0.00;;;;;13.43;55.83;100398.88;5037556;28;45596;-75
2022/11/04 04:03:32;;;;;;;;;0.00;0.00;;;;;13.45;55.55;100394.56;5035777;28;47012;-75
2022/11/04 04:06:18;;;;;;;;;1.00;0.00;;;;;13.46;55.50;100391.97;5037400;28;45303;-70
2022/11/04 04:08:51;;;;;;;;;0.00;0.00;;;;;13.47;55.53;100388.50;5035857;28;45421;-74
2022/11/04 04:11:26;;;;;;;;;0.00;0.00;;;;;13.50;55.28;100374.53;5035947;28;45371;-71
2022/11/04 04:14:02;;;;;;;;;2.33;0.00;;;;;13.47;55.71;100374.50;5036985;28;45501;-71
2022/11/04 04:16:46;;;;;;;;;1.00;0.00;;;;;13.42;55.70;100357.78;5035122;28;45657;-72
2022/11/04 04:19:17;;;;;;;;;1.33;0.00;;;;;13.39;55.43;100347.22;5037094;28;45446;-71
2022/11/04 04:21:50;;;;;;;;;0.00;0.00;;;;;13.48;55.15;100355.25;5037250;28;45489;-71
2022/11/04 04:29:49;;;;;;;;;1.00;0.00;;;;;13.40;55.95;100346.38;5040624;28;45645;-75
2022/11/04 04:32:16;;;;;;;;;1.00;0.00;;;;;13.32;55.73;100339.25;5040891;28;45325;-74
2022/11/04 04:34:42;;;;;;;;;1.00;0.00;;;;;13.31;55.80;100331.41;5039703;28;45510;-75
2022/11/04 04:37:21;;;;;;;;;1.00;0.00;;;;;13.29;55.22;100328.75;5040200;28;45564;-71
2022/11/04 04:45:31;;;;;;;;;1.00;0.00;;;;;13.46;54.89;100367.47;5040351;28;45210;-71
2022/11/04 04:47:57;;;;;;;;;0.33;0.33;;;;;13.40;55.43;100356.88;5040079;28;45273;-71
2022/11/04 04:50:27;;;;;;;;;2.00;0.67;;;;;13.53;55.32;100362.34;5040380;28;45427;-72
2022/11/04 04:52:55;;;;;;;;;0.00;0.00;;;;;13.51;57.30;100364.06;5056003;28;45656;-71
2022/11/04 04:55:21;;;;;;;;;0.00;0.00;;;;;13.46;57.38;100368.34;5039945;28;45350;-71
2022/11/04 04:57:46;;;;;;;;;0.33;0.33;;;;;13.52;58.13;100384.19;5040057;28;45402;-73
2022/11/04 05:00:16;;;;;;;;;1.00;0.00;;;;;13.51;57.92;100381.56;5040137;28;45245;-71
2022/11/04 05:02:42;;;;;;;;;3.00;0.00;;;;;13.53;58.03;100387.72;5040191;28;45577;-74
2022/11/04 05:05:08;;;;;;;;;0.33;0.00;;;;;13.57;57.73;100397.38;5055145;28;46830;-76
2022/11/04 05:07:34;;;;;;;;;1.00;0.00;;;;;13.52;57.93;100396.41;5039969;28;45324;-75
2022/11/04 05:10:00;;;;;;;;;0.00;0.00;;;;;13.41;58.63;100408.47;5039780;28;45240;-75
2022/11/04 05:13:24;;;;;;;;;2.00;0.00;;;;;13.58;58.51;100440.25;5040140;28;45407;-74
2022/11/04 05:15:11;;;;;;;;;1.00;0.00;;;;;13.46;60.48;100419.94;5039458;28;46083;-76
2022/11/04 05:17:36;;;;;;;;;1.00;0.00;;;;;13.37;60.62;100409.28;5039673;28;45328;-71
2022/11/04 05:20:02;;;;;;;;;0.00;0.00;;;;;13.30;60.61;100406.56;5039667;28;45552;-73
2022/11/04 05:22:28;;;;;;;;;0.00;0.00;;;;;13.35;61.31;100411.91;5056039;28;45204;-73
2022/11/04 05:24:53;;;;;;;;;0.00;0.00;;;;;13.30;61.61;100417.06;5055272;28;45513;-74
2022/11/04 05:27:19;;;;;;;;;2.00;0.00;;;;;13.21;61.13;100382.78;5039490;28;45271;-71
2022/11/04 05:29:44;;;;;;;;;0.00;0.00;;;;;13.37;61.96;100410.19;5039440;28;45211;-71
2022/11/04 05:32:10;;;;;;;;;0.00;0.00;;;;;13.30;61.74;100395.19;5055422;28;45522;-71
2022/11/04 05:34:35;;;;;;;;;0.00;0.00;;;;;13.30;61.75;100390.81;5039471;28;46471;-71
2022/11/04 05:37:01;;;;;;;;;1.00;1.00;;;;;13.21;62.23;100384.50;5039573;28;45588;-71
2022/11/04 05:39:26;;;;;;;;;0.00;0.00;;;;;13.19;62.56;100404.59;5039221;28;45620;-71
2022/11/04 05:41:52;;;;;;;;;0.67;0.00;;;;;13.16;62.41;100408.03;5039373;28;45548;-71
2022/11/04 05:44:17;;;;;;;;;0.33;0.00;;;;;13.10;62.28;100385.22;5054355;28;48352;-71
2022/11/04 05:46:43;;;;;;;;;0.00;0.00;;;;;12.92;62.40;100356.06;5054769;28;45319;-71
2022/11/04 05:49:08;;;;;;;;;1.00;0.67;;;;;12.79;63.20;100357.56;5039008;28;45327;-71
2022/11/04 05:51:34;;;;;;;;;0.00;0.00;;;;;12.68;62.75;100353.91;5038973;28;45653;-71
2022/11/04 05:54:00;;;;;;;;;0.00;0.00;;;;;12.66;62.95;100377.44;5039000;28;46209;-71
2022/11/04 05:56:26;;;;;;;;;0.00;0.00;;;;;12.56;63.45;100386.00;5071943;28;45236;-71
2022/11/04 05:58:51;;;;;;;;;2.00;1.00;;;;;12.30;64.32;100375.00;5037778;28;45344;-72
2022/11/04 06:01:30;;;;;;;;;5.00;2.67;;;;;12.40;64.43;100374.31;5038829;28;45305;-72
2022/11/04 06:03:57;;;;;;;;;5.00;3.00;;;;;12.06;64.17;100310.81;5036667;28;46350;-72
2022/11/04 06:06:25;;;;;;;;;9.25;7.00;;;;;12.55;64.57;100394.69;5037672;28;45449;-72
2022/11/04 06:08:51;;;;;;;;;7.00;6.25;;;;;12.44;64.59;100376.16;5038010;28;45433;-72
2022/11/04 06:11:17;;;;;;;;;2.00;2.00;;;;;12.50;64.39;100381.50;5038041;28;45263;-72
2022/11/04 06:13:43;;;;;;;;;3.25;2.25;;;;;12.55;64.49;100384.22;5037791;28;46277;-71
2022/11/04 06:16:08;;;;;;;;;3.00;1.25;;;;;12.48;65.02;100380.59;5037846;28;45279;-72
2022/11/04 06:18:34;;;;;;;;;2.00;2.00;;;;;12.52;65.03;100368.44;5038144;28;45339;-71
2022/11/04 06:21:20;;;;;;;;;1.00;1.00;;;;;12.65;64.94;100370.47;5041127;28;45644;-71
2022/11/04 06:23:45;;;;;;;;;2.00;2.00;;;;;12.62;65.07;100388.72;5056961;28;45637;-71
2022/11/04 06:26:12;;;;;;;;;5.00;3.00;;;;;12.31;65.77;100350.56;5048001;28;45549;-71
2022/11/04 06:28:37;;;;;;;;;1.00;1.00;;;;;12.57;67.28;100413.06;5045514;28;45433;-71
2022/11/04 06:31:06;;;;;;;;;1.00;1.00;;;;;12.65;67.21;100421.97;5048824;28;45494;-71
2022/11/04 06:33:32;;;;;;;;;6.75;4.00;;;;;12.69;66.82;100432.56;5046850;28;46465;-71
2022/11/04 06:36:03;;;;;;;;;3.00;2.00;;;;;12.63;67.95;100402.72;5046783;28;45398;-71
2022/11/04 06:38:31;;;;;;;;;2.33;0.00;;;;;12.44;67.86;100370.03;5048131;28;45376;-71
2022/11/04 06:40:57;;;;;;;;;1.67;1.00;;;;;12.50;68.48;100386.75;5049115;28;45623;-71
2022/11/04 06:43:23;;;;;;;;;1.33;1.00;;;;;12.46;68.88;100405.88;5045167;28;45534;-71
2022/11/04 06:45:53;;;;;;;;;1.33;1.00;;;;;12.28;69.76;100395.91;5046823;28;45586;-71
2022/11/04 06:48:19;;;;;;;;;3.00;1.00;;;;;12.28;69.82;100398.53;5048606;28;45437;-71
2022/11/04 06:50:44;;;;;;;;;0.00;0.00;;;;;12.25;69.89;100395.84;5061562;28;45413;-71
2022/11/04 06:53:09;;;;;;;;;2.00;1.67;;;;;12.22;69.56;100384.44;5045752;28;45631;-71
2022/11/04 06:55:35;;;;;;;;;1.00;1.00;;;;;12.15;70.39;100396.50;5048247;28;45429;-71
2022/11/04 06:58:00;;;;;;;;;0.00;0.00;;;;;12.25;69.81;100382.75;5046766;28;45418;-71
2022/11/04 07:00:26;;;;;;;;;2.00;1.67;;;;;12.20;71.18;100409.72;5047885;28;45256;-71
2022/11/04 07:02:52;;;;;;;;;3.50;2.00;;;;;12.16;71.75;100431.47;5047508;28;45652;-71
2022/11/04 07:05:17;;;;;;;;;3.25;1.75;;;;;12.19;70.83;100419.28;5039764;28;45477;-71
2022/11/04 07:07:43;;;;;;;;;1.00;1.00;;;;;12.22;71.12;100418.50;5059766;28;45502;-71
2022/11/04 07:10:08;;;;;;;;;1.25;1.25;;;;;12.22;72.58;100439.44;5046790;28;45975;-71
2022/11/04 07:12:34;;;;;;;;;1.00;1.00;;;;;12.24;71.82;100448.22;5044486;28;47564;-72
2022/11/04 07:14:59;;;;;;;;;0.33;0.00;;;;;12.30;72.08;100500.72;5046391;28;45801;-71
2022/11/04 07:17:25;;;;;;;;;1.33;0.33;;;;;12.21;71.99;100530.19;5043096;28;45395;-71
2022/11/04 07:19:50;;;;;;;;;1.67;1.00;;;;;12.27;72.72;100537.31;5037342;28;45299;-72
2022/11/04 07:22:16;;;;;;;;;1.67;1.00;;;;;12.19;73.14;100531.03;5035391;28;46398;-71
2022/11/04 07:24:42;;;;;;;;;1.00;0.00;;;;;12.28;73.77;100545.22;5036943;28;45363;-72
2022/11/04 07:27:08;;;;;;;;;0.00;0.00;;;;;12.31;74.07;100521.72;5037332;28;45449;-71
2022/11/04 07:29:33;;;;;;;;;1.00;0.00;;;;;12.27;74.20;100532.06;5035830;28;45418;-71
2022/11/04 07:31:59;;;;;;;;;2.00;2.00;;;;;12.30;73.59;100514.69;5052349;28;46264;-74
2022/11/04 07:34:24;;;;;;;;;1.00;0.33;;;;;12.26;73.78;100497.16;5036616;28;45316;-70
2022/11/04 07:36:50;;;;;;;;;3.33;0.33;;;;;12.34;73.89;100500.81;5037006;28;45460;-71
2022/11/04 07:39:16;;;;;;;;;0.33;0.00;;;;;12.41;74.72;100524.53;5037155;28;45490;-73
2022/11/04 07:41:41;;;;;;;;;1.00;0.00;;;;;12.43;74.77;100563.00;5036752;28;46176;-70
2022/11/04 07:44:10;;;;;;;;;4.00;1.67;;;;;12.10;75.67;100552.66;5036862;28;45733;-71
2022/11/04 07:46:36;;;;;;;;;1.67;1.00;;;;;12.37;75.27;100594.31;5037565;28;45433;-71
2022/11/04 07:49:01;;;;;;;;;0.00;0.00;;;;;12.37;75.06;100583.81;5036623;28;45562;-71
2022/11/04 07:51:27;;;;;;;;;2.67;0.00;;;;;12.45;75.76;100582.25;5035891;28;45447;-71
2022/11/04 07:53:54;;;;;;;;;1.00;1.00;;;;;12.48;75.34;100586.72;5036666;28;45359;-71
2022/11/04 07:56:22;;;;;;;;;0.67;0.67;;;;;12.45;74.74;100586.63;5036219;28;45465;-71
2022/11/04 07:58:48;;;;;;;;;2.00;1.00;;;;;12.38;74.77;100575.13;5036955;28;45403;-70
2022/11/04 08:01:17;;;;;;;;;1.00;0.00;;;;;12.57;74.60;100588.63;5035250;28;48045;-71
2022/11/04 08:03:43;;;;;;;;;0.00;0.00;;;;;12.56;74.15;100590.38;5036598;28;45288;-72
2022/11/04 08:06:11;;;;;;;;;2.33;1.00;;;;;12.51;73.91;100587.66;5036787;28;45411;-73
2022/11/04 08:08:37;;;;;;;;;2.00;0.00;;;;;12.44;73.55;100569.16;5035471;28;45537;-71
2022/11/04 08:11:06;;;;;;;;;2.00;1.00;;;;;12.44;73.14;100572.66;5035527;28;45474;-72
2022/11/04 08:13:35;;;;;;;;;0.33;0.00;;;;;12.68;72.65;100610.75;5035700;28;45474;-71
2022/11/04 08:16:16;;;;;;;;;1.00;0.00;;;;;12.62;72.40;100597.50;5037090;28;45387;-71
2022/11/04 08:18:42;;;;;;;;;0.00;0.00;;;;;12.77;72.62;100608.31;5037260;28;45324;-71
2022/11/04 08:21:08;;;;;;;;;1.00;0.00;;;;;12.82;72.51;100598.81;5036734;28;45991;-71
2022/11/04 08:23:34;;;;;;;;;2.00;1.50;;;;;12.80;72.40;100583.91;5036735;28;45309;-70
2022/11/04 08:26:00;;;;;;;;;1.00;0.00;;;;;12.86;71.68;100587.53;5035379;28;45340;-71
2022/11/04 08:28:28;;;;;;;;;4.33;3.67;;;;;12.94;71.42;100601.69;5035544;28;45446;-73
2022/11/04 08:31:00;;;;;;;;;0.00;0.00;;;;;13.13;71.80;100617.84;5036467;28;46111;-71
2022/11/04 08:33:28;;;;;;;;;1.00;1.00;;;;;13.21;71.62;100621.50;5036419;28;45504;-73
2022/11/04 08:35:57;;;;;;;;;0.00;0.00;;;;;13.28;71.92;100622.50;5036551;28;45322;-73
2022/11/04 08:38:23;;;;;;;;;1.00;0.00;;;;;13.31;72.11;100605.13;5035408;28;45609;-72
2022/11/04 08:40:48;;;;;;;;;0.67;0.67;;;;;13.53;71.81;100605.53;5036274;28;45929;-72
2022/11/04 08:43:14;;;;;;;;;0.67;0.67;;;;;13.64;71.68;100610.97;5035018;28;45501;-73
2022/11/04 08:45:45;;;;;;;;;1.00;0.00;;;;;13.75;70.81;100619.94;5036529;28;45359;-72
2022/11/04 08:48:12;;;;;;;;;2.00;1.67;;;;;13.84;71.31;100621.84;5035281;28;45494;-73
2022/11/04 08:50:38;;;;;;;;;1.00;0.00;;;;;13.85;71.32;100610.50;5036648;28;46115;-72
2022/11/04 08:53:04;;;;;;;;;1.00;0.67;;;;;13.95;70.79;100608.88;5036481;28;45363;-71
2022/11/04 08:55:31;;;;;;;;;0.00;0.00;;;;;13.96;71.13;100598.41;5036329;28;45514;-72
2022/11/04 08:57:57;;;;;;;;;0.33;0.00;;;;;14.09;70.50;100592.50;5036380;28;45185;-71
2022/11/04 09:00:23;;;;;;;;;1.00;0.00;;;;;14.13;70.40;100602.22;5036198;28;46177;-70
2022/11/04 09:02:48;;;;;;;;;1.00;0.00;;;;;13.91;70.57;100584.34;5036456;28;45964;-71
2022/11/04 09:05:14;;;;;;;;;0.33;0.00;;;;;14.02;71.24;100574.88;5035004;28;45487;-71
2022/11/04 09:07:41;;;;;;;;;1.33;1.33;;;;;14.28;70.84;100577.03;5036141;28;45338;-71
2022/11/04 09:10:08;;;;;;;;;2.67;1.67;;;;;14.37;70.84;100576.31;5036412;28;46158;-72
2022/11/04 09:12:34;;;;;;;;;1.00;1.00;;;;;14.57;70.02;100574.88;5036269;28;45466;-71
2022/11/04 09:14:59;;;;;;;;;3.33;0.00;;;;;14.64;69.88;100587.25;5039831;28;45394;-71
2022/11/04 09:17:25;;;;;;;;;2.00;1.00;;;;;14.64;70.30;100582.00;5039883;28;45236;-71
2022/11/04 09:19:50;;;;;;;;;1.00;1.00;;;;;14.75;69.99;100610.19;5039300;28;46659;-70
2022/11/04 09:22:16;;;;;;;;;1.33;0.00;;;;;14.87;69.89;100611.22;5039358;28;45419;-72
2022/11/04 09:24:43;;;;;;;;;7.00;3.00;;;;;14.92;70.11;100598.13;5039350;28;45556;-71
2022/11/04 09:27:08;;;;;;;;;1.00;1.00;;;;;14.96;69.69;100591.16;5039899;28;45456;-71
2022/11/04 09:29:35;;;;;;;;;2.67;1.00;;;;;15.00;69.84;100601.75;5038581;28;46019;-71
2022/11/04 09:32:02;;;;;;;;;1.00;1.00;;;;;15.21;67.99;100597.63;5039414;28;45322;-71
2022/11/04 09:34:28;;;;;;;;;4.00;1.00;;;;;15.34;68.21;100596.00;5039312;28;45257;-71
2022/11/04 09:36:57;;;;;;;;;1.33;1.00;;;;;15.37;68.14;100591.66;5039422;28;45507;-71
2022/11/04 09:39:24;;;;;;;;;2.00;1.00;;;;;15.33;67.73;100595.13;5039160;28;45333;-71
2022/11/04 09:42:05;;;;;;;;;3.00;1.00;;;;;15.45;67.98;100576.81;5038923;28;45401;-70
2022/11/04 09:44:59;;;;;;;;;2.00;1.00;;;;;16.14;65.84;100592.41;5037794;28;45220;-71
2022/11/04 09:47:26;;;;;;;;;10.67;8.67;;;;;16.80;65.17;100590.22;5039365;28;45569;-70
2022/11/04 09:49:57;;;;;;;;;3.00;1.00;;;;;17.23;62.39;100615.94;5038244;28;45482;-71
2022/11/04 09:52:34;;;;;;;;;2.00;1.00;;;;;17.30;61.91;100593.97;5038831;28;45596;-71
2022/11/04 09:55:06;;;;;;;;;2.67;1.00;;;;;17.50;61.74;100604.59;5038782;28;45217;-71
2022/11/04 09:57:32;;;;;;;;;4.00;2.00;;;;;17.49;61.82;100592.28;5038956;28;45213;-71
2022/11/04 09:59:58;;;;;;;;;1.00;0.33;;;;;17.21;61.69;100609.75;5038825;28;45297;-71
2022/11/04 10:02:42;;;;;;;;;2.67;1.00;;;;;16.87;62.89;100639.53;5038718;28;45458;-71
2022/11/04 10:05:38;;;;;;;;;2.67;1.00;;;;;16.16;63.24;100629.34;5038866;28;45458;-72
2022/11/04 10:08:25;;;;;;;;;1.67;0.00;;;;;15.91;64.85;100637.88;5039076;28;45465;-71
2022/11/04 10:11:06;;;;;;;;;2.33;1.00;;;;;16.14;64.09;100631.09;5038805;28;46605;-71
2022/11/04 10:13:50;;;;;;;;;3.33;0.00;;;;;16.47;64.02;100633.97;5038888;28;45224;-70
2022/11/04 10:16:21;;;;;;;;;4.00;1.00;;;;;16.70;62.58;100630.59;5038830;28;45331;-71
2022/11/04 10:19:03;;;;;;;;;2.67;1.33;;;;;16.76;62.53;100620.09;5038993;28;45540;-71
2022/11/04 10:21:55;;;;;;;;;5.67;2.67;;;;;17.36;61.24;100616.88;5038296;28;45498;-73
2022/11/04 10:24:34;;;;;;;;;2.33;0.67;;;;;17.65;59.60;100603.75;5037179;28;45287;-72
2022/11/04 10:27:04;;;;;;;;;3.33;2.00;;;;;17.99;59.67;100612.63;5038567;28;45309;-71
2022/11/04 10:29:34;;;;;;;;;3.33;2.33;;;;;18.34;57.32;100608.22;5037242;28;45268;-71
2022/11/04 10:32:05;;;;;;;;;2.00;0.67;;;;;18.76;57.18;100620.50;5038317;28;45430;-71
2022/11/04 10:34:39;;;;;;;;;2.33;1.67;;;;;19.01;57.17;100620.44;5037055;28;45267;-71
2022/11/04 10:37:10;;;;;;;;;3.33;0.67;;;;;18.85;55.17;100612.56;5038558;28;45267;-71
2022/11/04 10:39:43;;;;;;;;;3.67;2.00;;;;;18.51;52.75;100622.31;5038480;28;45596;-71
2022/11/04 10:42:21;;;;;;;;;2.67;1.00;;;;;18.43;49.83;100655.81;5037937;28;45493;-71
2022/11/04 10:44:49;;;;;;;;;1.50;1.00;;;;;18.27;50.39;100649.66;5037984;28;45486;-71
2022/11/04 10:47:34;;;;;;;;;1.00;0.67;;;;;18.29;51.00;100651.41;5038088;28;45425;-71
2022/11/04 10:50:12;;;;;;;;;0.67;0.00;;;;;18.19;50.51;100646.13;5038402;28;45449;-71
2022/11/04 10:52:38;;;;;;;;;2.67;1.00;;;;;18.32;51.76;100642.59;5036533;28;46596;-70
2022/11/04 10:55:48;;;;;;;;;3.33;0.67;;;;;18.19;51.79;100659.34;5036858;28;45482;-71
2022/11/04 10:58:26;;;;;;;;;1.67;1.00;;;;;18.19;51.77;100665.50;5038631;28;45437;-71
2022/11/04 11:00:53;;;;;;;;;3.00;1.67;;;;;18.21;51.89;100652.31;5038220;28;45370;-71
2022/11/04 11:03:29;;;;;;;;;0.67;0.33;;;;;18.63;51.50;100667.25;5037727;28;46247;-72
2022/11/04 11:06:31;;;;;;;;;5.33;5.33;;;;;18.75;50.13;100670.78;5036464;28;45504;-71
2022/11/04 11:09:29;;;;;;;;;2.33;2.00;;;;;18.76;50.05;100691.97;5027719;28;45473;-71
2022/11/04 11:12:19;;;;;;;;;2.00;1.33;;;;;18.45;49.53;100676.09;5037937;28;45482;-71
2022/11/04 11:14:46;;;;;;;;;2.67;1.33;;;;;18.59;49.29;100691.09;5037904;28;46184;-71
2022/11/04 11:17:16;;;;;;;;;2.33;0.67;;;;;18.22;48.75;100705.19;5037977;28;45304;-71
2022/11/04 11:19:55;;;;;;;;;0.00;0.00;;;;;18.21;48.49;100699.91;5038255;28;45765;-71
2022/11/04 11:22:42;;;;;;;;;2.67;1.00;;;;;18.03;49.80;100680.47;5037827;28;45332;-71
2022/11/04 11:25:34;;;;;;;;;0.33;0.33;;;;;18.26;48.76;100677.88;5037493;28;45283;-71
2022/11/04 11:28:01;;;;;;;;;2.00;0.33;;;;;18.45;48.87;100689.31;5036187;28;45684;-71
2022/11/04 11:30:51;;;;;;;;;2.67;0.67;;;;;18.71;48.91;100685.78;5037586;28;45575;-72
2022/11/04 11:33:37;;;;;;;;;1.00;0.67;;;;;19.31;49.43;100692.72;5030176;28;45733;-71
2022/11/04 11:36:30;;;;;;;;;1.67;1.00;;;;;19.50;47.56;100683.81;5036367;28;46101;-71
2022/11/04 11:39:09;;;;;;;;;1.00;0.00;;;;;19.77;47.78;100690.78;5034560;28;45450;-72
2022/11/04 11:41:57;;;;;;;;;2.00;1.00;;;;;19.48;47.07;100701.50;5037354;28;45431;-71
2022/11/04 11:44:43;;;;;;;;;2.00;0.33;;;;;19.07;48.11;100711.31;5037405;28;45454;-71
2022/11/04 11:47:29;;;;;;;;;2.00;0.67;;;;;18.52;48.56;100726.34;5037272;28;46081;-71
2022/11/04 11:50:18;;;;;;;;;3.67;1.67;;;;;18.20;47.94;100727.19;5037195;28;45526;-71
2022/11/04 11:52:46;;;;;;;;;1.00;0.00;;;;;17.62;48.59;100725.25;5037553;28;45317;-71
2022/11/04 11:55:27;;;;;;;;;2.67;1.00;;;;;17.81;48.65;100716.50;5037546;28;45346;-70
2022/11/04 11:58:22;;;;;;;;;2.00;0.67;;;;;17.84;49.04;100711.25;5036736;28;46257;-71
2022/11/04 12:01:00;;;;;;;;;3.33;1.67;;;;;17.93;49.18;100710.41;5036988;28;45513;-72
2022/11/04 12:03:29;;;;;;;;;2.33;1.67;;;;;17.93;49.30;100707.78;5035245;28;45263;-71
2022/11/04 12:06:06;;;;;;;;;3.33;1.00;;;;;18.34;49.61;100716.63;5036790;28;45283;-71
2022/11/04 12:08:51;;;;;;;;;2.00;1.00;;;;;18.28;51.07;100733.38;5035090;28;46351;-71
2022/11/04 12:11:37;;;;;;;;;1.33;0.33;;;;;18.23;52.96;100733.38;5035748;28;45590;-74
2022/11/04 12:14:32;;;;;;;;;4.00;2.67;;;;;18.43;53.76;100732.53;5037003;28;45493;-71
2022/11/04 12:17:18;;;;;;;;;2.67;1.00;;;;;18.57;53.70;100727.25;5036951;28;45490;-72